sensor_id;sensor_type;location;lat;lon;timestamp;P1;durP1;ratioP1;P2;durP2;ratioP2
16393;SDS011;8306;51.128;4.476;2022-09-02T00:00:34;5.47;;;3.40;;
16393;SDS011;8306;51.128;4.476;2022-09-02T00:03:01;4.90;;;3.47;;
16393;SDS011;8306;51.128;4.476;2022-09-02T00:05:27;4.10;;;3.57;;
16393;SDS011;8306;51.128;4.476;2022-09-02T00:07:54;4.33;;;3.07;;
16393;SDS011;8306;51.128;4.476;2022-09-02T00:10:20;5.50;;;3.40;;
16393;SDS011;8306;51.128;4.476;2022-09-02T00:12:47;3.93;;;3.00;;
16393;SDS011;8306;51.128;4.476;2022-09-02T00:15:13;5.17;;;3.60;;
16393;SDS011;8306;51.128;4.476;2022-09-02T00:17:39;6.03;;;3.57;;
16393;SDS011;8306;51.128;4.476;2022-09-02T00:20:06;5.50;;;3.80;;
16393;SDS011;8306;51.128;4.476;2022-09-02T00:22:32;5.70;;;3.83;;
16393;SDS011;8306;51.128;4.476;2022-09-02T00:24:59;4.37;;;3.97;;
16393;SDS011;8306;51.128;4.476;2022-09-02T00:27:25;5.37;;;4.40;;
16393;SDS011;8306;51.128;4.476;2022-09-02T00:29:52;5.53;;;3.93;;
16393;SDS011;8306;51.128;4.476;2022-09-02T00:32:18;6.23;;;4.03;;
16393;SDS011;8306;51.128;4.476;2022-09-02T00:34:45;5.17;;;4.60;;
16393;SDS011;8306;51.128;4.476;2022-09-02T00:37:11;7.23;;;4.43;;
16393;SDS011;8306;51.128;4.476;2022-09-02T00:39:38;5.73;;;4.73;;
16393;SDS011;8306;51.128;4.476;2022-09-02T00:42:04;7.13;;;5.10;;
16393;SDS011;8306;51.128;4.476;2022-09-02T00:44:31;7.87;;;5.60;;
16393;SDS011;8306;51.128;4.476;2022-09-02T00:46:57;10.87;;;5.43;;
16393;SDS011;8306;51.128;4.476;2022-09-02T00:49:30;6.97;;;5.13;;
16393;SDS011;8306;51.128;4.476;2022-09-02T00:54:26;6.03;;;5.43;;
16393;SDS011;8306;51.128;4.476;2022-09-02T00:56:52;6.77;;;5.67;;
16393;SDS011;8306;51.128;4.476;2022-09-02T00:59:42;8.70;;;6.03;;
16393;SDS011;8306;51.128;4.476;2022-09-02T01:01:47;8.03;;;6.27;;
16393;SDS011;8306;51.128;4.476;2022-09-02T01:04:14;8.90;;;5.80;;
16393;SDS011;8306;51.128;4.476;2022-09-02T01:06:40;9.20;;;6.40;;
16393;SDS011;8306;51.128;4.476;2022-09-02T01:09:09;7.03;;;6.33;;
16393;SDS011;8306;51.128;4.476;2022-09-02T01:11:40;8.73;;;6.33;;
16393;SDS011;8306;51.128;4.476;2022-09-02T01:14:05;9.93;;;6.50;;
16393;SDS011;8306;51.128;4.476;2022-09-02T01:16:33;8.93;;;6.70;;
16393;SDS011;8306;51.128;4.476;2022-09-02T01:18:58;10.20;;;6.50;;
16393;SDS011;8306;51.128;4.476;2022-09-02T01:21:25;7.47;;;6.77;;
16393;SDS011;8306;51.128;4.476;2022-09-02T01:23:51;8.07;;;6.77;;
16393;SDS011;8306;51.128;4.476;2022-09-02T01:26:18;7.73;;;6.93;;
16393;SDS011;8306;51.128;4.476;2022-09-02T01:28:44;9.67;;;6.63;;
16393;SDS011;8306;51.128;4.476;2022-09-02T01:31:10;9.07;;;6.70;;
16393;SDS011;8306;51.128;4.476;2022-09-02T01:33:37;13.43;;;7.17;;
16393;SDS011;8306;51.128;4.476;2022-09-02T01:36:04;8.40;;;7.47;;
16393;SDS011;8306;51.128;4.476;2022-09-02T01:38:30;7.43;;;6.73;;
16393;SDS011;8306;51.128;4.476;2022-09-02T01:40:56;8.53;;;7.17;;
16393;SDS011;8306;51.128;4.476;2022-09-02T01:43:24;8.17;;;7.37;;
16393;SDS011;8306;51.128;4.476;2022-09-02T01:45:54;8.47;;;7.57;;
16393;SDS011;8306;51.128;4.476;2022-09-02T01:48:16;11.63;;;7.47;;
16393;SDS011;8306;51.128;4.476;2022-09-02T01:50:44;7.77;;;6.93;;
16393;SDS011;8306;51.128;4.476;2022-09-02T01:53:09;7.73;;;6.60;;
16393;SDS011;8306;51.128;4.476;2022-09-02T01:55:35;13.23;;;7.70;;
16393;SDS011;8306;51.128;4.476;2022-09-02T01:58:02;7.57;;;6.73;;
16393;SDS011;8306;51.128;4.476;2022-09-02T02:00:28;10.90;;;7.43;;
16393;SDS011;8306;51.128;4.476;2022-09-02T02:02:55;8.83;;;7.07;;
16393;SDS011;8306;51.128;4.476;2022-09-02T02:05:21;8.27;;;7.57;;
16393;SDS011;8306;51.128;4.476;2022-09-02T02:07:48;8.10;;;7.17;;
16393;SDS011;8306;51.128;4.476;2022-09-02T02:10:15;8.50;;;7.10;;
16393;SDS011;8306;51.128;4.476;2022-09-02T02:12:41;7.57;;;6.83;;
16393;SDS011;8306;51.128;4.476;2022-09-02T02:15:09;8.17;;;6.87;;
16393;SDS011;8306;51.128;4.476;2022-09-02T02:17:34;12.07;;;7.53;;
16393;SDS011;8306;51.128;4.476;2022-09-02T02:20:00;8.57;;;7.77;;
16393;SDS011;8306;51.128;4.476;2022-09-02T02:22:27;10.07;;;7.50;;
16393;SDS011;8306;51.128;4.476;2022-09-02T02:24:53;8.00;;;6.50;;
16393;SDS011;8306;51.128;4.476;2022-09-02T02:27:20;8.00;;;7.20;;
16393;SDS011;8306;51.128;4.476;2022-09-02T02:29:46;8.80;;;7.43;;
16393;SDS011;8306;51.128;4.476;2022-09-02T02:32:12;9.13;;;7.17;;
16393;SDS011;8306;51.128;4.476;2022-09-02T02:34:39;9.73;;;7.17;;
16393;SDS011;8306;51.128;4.476;2022-09-02T02:37:05;8.47;;;6.70;;
16393;SDS011;8306;51.128;4.476;2022-09-02T02:39:32;11.47;;;6.87;;
16393;SDS011;8306;51.128;4.476;2022-09-02T02:41:58;9.37;;;7.03;;
16393;SDS011;8306;51.128;4.476;2022-09-02T02:44:25;9.10;;;6.93;;
16393;SDS011;8306;51.128;4.476;2022-09-02T02:46:51;7.97;;;7.07;;
16393;SDS011;8306;51.128;4.476;2022-09-02T02:49:18;7.63;;;6.93;;
16393;SDS011;8306;51.128;4.476;2022-09-02T02:51:44;7.30;;;6.60;;
16393;SDS011;8306;51.128;4.476;2022-09-02T02:54:11;8.27;;;6.80;;
16393;SDS011;8306;51.128;4.476;2022-09-02T02:56:37;9.00;;;7.17;;
16393;SDS011;8306;51.128;4.476;2022-09-02T02:59:04;8.23;;;6.33;;
16393;SDS011;8306;51.128;4.476;2022-09-02T03:01:31;7.77;;;6.00;;
16393;SDS011;8306;51.128;4.476;2022-09-02T03:03:57;8.20;;;6.30;;
16393;SDS011;8306;51.128;4.476;2022-09-02T03:06:23;8.90;;;7.03;;
16393;SDS011;8306;51.128;4.476;2022-09-02T03:08:50;8.93;;;6.17;;
16393;SDS011;8306;51.128;4.476;2022-09-02T03:11:16;7.33;;;6.47;;
16393;SDS011;8306;51.128;4.476;2022-09-02T03:13:43;7.93;;;6.60;;
16393;SDS011;8306;51.128;4.476;2022-09-02T03:16:09;6.73;;;6.00;;
16393;SDS011;8306;51.128;4.476;2022-09-02T03:18:36;6.13;;;5.53;;
16393;SDS011;8306;51.128;4.476;2022-09-02T03:21:05;6.60;;;5.80;;
16393;SDS011;8306;51.128;4.476;2022-09-02T03:23:29;6.93;;;6.33;;
16393;SDS011;8306;51.128;4.476;2022-09-02T03:25:55;8.27;;;6.67;;
16393;SDS011;8306;51.128;4.476;2022-09-02T03:28:21;6.97;;;6.27;;
16393;SDS011;8306;51.128;4.476;2022-09-02T03:30:48;7.07;;;6.30;;
16393;SDS011;8306;51.128;4.476;2022-09-02T03:33:15;6.90;;;6.17;;
16393;SDS011;8306;51.128;4.476;2022-09-02T03:35:42;7.67;;;6.57;;
16393;SDS011;8306;51.128;4.476;2022-09-02T03:38:09;6.53;;;5.83;;
16393;SDS011;8306;51.128;4.476;2022-09-02T03:40:35;6.53;;;5.80;;
16393;SDS011;8306;51.128;4.476;2022-09-02T03:43:01;6.83;;;6.13;;
16393;SDS011;8306;51.128;4.476;2022-09-02T03:45:27;9.10;;;6.20;;
16393;SDS011;8306;51.128;4.476;2022-09-02T03:47:54;7.73;;;6.07;;
16393;SDS011;8306;51.128;4.476;2022-09-02T03:50:22;6.93;;;6.03;;
16393;SDS011;8306;51.128;4.476;2022-09-02T03:52:50;6.77;;;6.07;;
16393;SDS011;8306;51.128;4.476;2022-09-02T03:55:16;6.67;;;5.80;;
16393;SDS011;8306;51.128;4.476;2022-09-02T03:57:43;6.33;;;5.73;;
16393;SDS011;8306;51.128;4.476;2022-09-02T04:00:09;7.80;;;6.10;;
16393;SDS011;8306;51.128;4.476;2022-09-02T04:02:36;7.27;;;6.53;;
16393;SDS011;8306;51.128;4.476;2022-09-02T04:05:02;6.40;;;5.73;;
16393;SDS011;8306;51.128;4.476;2022-09-02T04:07:28;6.00;;;5.40;;
16393;SDS011;8306;51.128;4.476;2022-09-02T04:09:55;6.70;;;6.00;;
16393;SDS011;8306;51.128;4.476;2022-09-02T04:12:21;6.73;;;6.13;;
16393;SDS011;8306;51.128;4.476;2022-09-02T04:14:48;7.90;;;5.33;;
16393;SDS011;8306;51.128;4.476;2022-09-02T04:17:14;6.73;;;6.13;;
16393;SDS011;8306;51.128;4.476;2022-09-02T04:19:41;6.40;;;5.80;;
16393;SDS011;8306;51.128;4.476;2022-09-02T04:22:07;6.27;;;5.60;;
16393;SDS011;8306;51.128;4.476;2022-09-02T04:24:34;8.00;;;6.10;;
16393;SDS011;8306;51.128;4.476;2022-09-02T04:27:00;6.47;;;5.90;;
16393;SDS011;8306;51.128;4.476;2022-09-02T04:29:27;11.80;;;6.27;;
16393;SDS011;8306;51.128;4.476;2022-09-02T04:31:53;6.50;;;5.90;;
16393;SDS011;8306;51.128;4.476;2022-09-02T04:34:20;7.93;;;6.23;;
16393;SDS011;8306;51.128;4.476;2022-09-02T04:36:46;7.00;;;5.87;;
16393;SDS011;8306;51.128;4.476;2022-09-02T04:39:13;7.57;;;5.80;;
16393;SDS011;8306;51.128;4.476;2022-09-02T04:41:39;5.87;;;5.37;;
16393;SDS011;8306;51.128;4.476;2022-09-02T04:44:06;7.63;;;5.83;;
16393;SDS011;8306;51.128;4.476;2022-09-02T04:46:32;7.13;;;5.50;;
16393;SDS011;8306;51.128;4.476;2022-09-02T04:48:59;8.07;;;5.27;;
16393;SDS011;8306;51.128;4.476;2022-09-02T04:51:25;7.23;;;5.23;;
16393;SDS011;8306;51.128;4.476;2022-09-02T04:53:52;5.57;;;4.93;;
16393;SDS011;8306;51.128;4.476;2022-09-02T04:56:20;5.73;;;4.67;;
16393;SDS011;8306;51.128;4.476;2022-09-02T04:58:45;5.73;;;4.93;;
16393;SDS011;8306;51.128;4.476;2022-09-02T05:01:12;5.13;;;4.63;;
16393;SDS011;8306;51.128;4.476;2022-09-02T05:03:37;7.60;;;4.83;;
16393;SDS011;8306;51.128;4.476;2022-09-02T05:06:05;5.27;;;4.77;;
16393;SDS011;8306;51.128;4.476;2022-09-02T05:08:31;5.33;;;4.50;;
16393;SDS011;8306;51.128;4.476;2022-09-02T05:10:57;6.47;;;5.00;;
16393;SDS011;8306;51.128;4.476;2022-09-02T05:13:23;5.10;;;4.60;;
16393;SDS011;8306;51.128;4.476;2022-09-02T05:15:50;8.03;;;4.03;;
16393;SDS011;8306;51.128;4.476;2022-09-02T05:18:16;4.77;;;4.20;;
16393;SDS011;8306;51.128;4.476;2022-09-02T05:20:43;6.63;;;4.30;;
16393;SDS011;8306;51.128;4.476;2022-09-02T05:23:10;4.07;;;3.67;;
16393;SDS011;8306;51.128;4.476;2022-09-02T05:25:37;7.07;;;4.27;;
16393;SDS011;8306;51.128;4.476;2022-09-02T05:28:03;6.87;;;4.27;;
16393;SDS011;8306;51.128;4.476;2022-09-02T05:30:29;4.80;;;3.93;;
16393;SDS011;8306;51.128;4.476;2022-09-02T05:32:55;3.97;;;3.53;;
16393;SDS011;8306;51.128;4.476;2022-09-02T05:35:22;4.60;;;3.73;;
16393;SDS011;8306;51.128;4.476;2022-09-02T05:37:48;5.47;;;4.20;;
16393;SDS011;8306;51.128;4.476;2022-09-02T05:40:15;5.17;;;3.43;;
16393;SDS011;8306;51.128;4.476;2022-09-02T05:42:41;6.47;;;3.77;;
16393;SDS011;8306;51.128;4.476;2022-09-02T05:45:08;5.67;;;4.03;;
16393;SDS011;8306;51.128;4.476;2022-09-02T05:47:34;5.20;;;3.80;;
16393;SDS011;8306;51.128;4.476;2022-09-02T05:50:01;5.40;;;3.47;;
16393;SDS011;8306;51.128;4.476;2022-09-02T05:52:27;7.90;;;3.40;;
16393;SDS011;8306;51.128;4.476;2022-09-02T05:54:54;4.63;;;3.37;;
16393;SDS011;8306;51.128;4.476;2022-09-02T05:57:20;4.33;;;3.60;;
16393;SDS011;8306;51.128;4.476;2022-09-02T05:59:47;8.97;;;4.00;;
16393;SDS011;8306;51.128;4.476;2022-09-02T06:02:14;3.97;;;3.50;;
16393;SDS011;8306;51.128;4.476;2022-09-02T06:04:40;4.07;;;3.30;;
16393;SDS011;8306;51.128;4.476;2022-09-02T06:07:08;3.60;;;3.30;;
16393;SDS011;8306;51.128;4.476;2022-09-02T06:09:35;4.53;;;3.90;;
16393;SDS011;8306;51.128;4.476;2022-09-02T06:12:01;4.20;;;3.00;;
16393;SDS011;8306;51.128;4.476;2022-09-02T06:14:28;4.90;;;3.50;;
16393;SDS011;8306;51.128;4.476;2022-09-02T06:16:55;7.37;;;3.43;;
16393;SDS011;8306;51.128;4.476;2022-09-02T06:19:21;13.10;;;3.77;;
16393;SDS011;8306;51.128;4.476;2022-09-02T06:21:47;10.67;;;3.53;;
16393;SDS011;8306;51.128;4.476;2022-09-02T06:24:14;7.43;;;3.70;;
16393;SDS011;8306;51.128;4.476;2022-09-02T06:26:40;5.93;;;3.63;;
16393;SDS011;8306;51.128;4.476;2022-09-02T06:29:07;7.87;;;3.40;;
16393;SDS011;8306;51.128;4.476;2022-09-02T06:31:33;4.77;;;3.63;;
16393;SDS011;8306;51.128;4.476;2022-09-02T06:34:00;6.63;;;3.80;;
16393;SDS011;8306;51.128;4.476;2022-09-02T06:36:27;7.30;;;3.20;;
16393;SDS011;8306;51.128;4.476;2022-09-02T06:38:54;3.90;;;3.00;;
16393;SDS011;8306;51.128;4.476;2022-09-02T06:41:21;6.07;;;3.23;;
16393;SDS011;8306;51.128;4.476;2022-09-02T06:43:45;5.30;;;2.80;;
16393;SDS011;8306;51.128;4.476;2022-09-02T06:46:16;3.50;;;3.17;;
16393;SDS011;8306;51.128;4.476;2022-09-02T06:48:41;5.33;;;3.57;;
16393;SDS011;8306;51.128;4.476;2022-09-02T06:51:08;4.13;;;2.70;;
16393;SDS011;8306;51.128;4.476;2022-09-02T06:53:34;4.83;;;2.80;;
16393;SDS011;8306;51.128;4.476;2022-09-02T06:56:01;4.00;;;2.50;;
16393;SDS011;8306;51.128;4.476;2022-09-02T06:58:27;6.53;;;3.20;;
16393;SDS011;8306;51.128;4.476;2022-09-02T07:00:54;4.80;;;2.67;;
16393;SDS011;8306;51.128;4.476;2022-09-02T07:03:20;6.00;;;3.20;;
16393;SDS011;8306;51.128;4.476;2022-09-02T07:05:59;3.07;;;2.60;;
16393;SDS011;8306;51.128;4.476;2022-09-02T07:08:25;5.67;;;2.53;;
16393;SDS011;8306;51.128;4.476;2022-09-02T07:10:51;4.90;;;2.60;;
16393;SDS011;8306;51.128;4.476;2022-09-02T07:13:18;4.70;;;2.60;;
16393;SDS011;8306;51.128;4.476;2022-09-02T07:15:44;3.33;;;2.67;;
16393;SDS011;8306;51.128;4.476;2022-09-02T07:18:11;5.50;;;2.70;;
16393;SDS011;8306;51.128;4.476;2022-09-02T07:20:37;4.30;;;2.93;;
16393;SDS011;8306;51.128;4.476;2022-09-02T07:23:04;3.97;;;2.33;;
16393;SDS011;8306;51.128;4.476;2022-09-02T07:25:30;2.17;;;1.97;;
16393;SDS011;8306;51.128;4.476;2022-09-02T07:27:57;3.97;;;2.60;;
16393;SDS011;8306;51.128;4.476;2022-09-02T07:30:23;4.03;;;2.37;;
16393;SDS011;8306;51.128;4.476;2022-09-02T07:32:50;2.80;;;2.33;;
16393;SDS011;8306;51.128;4.476;2022-09-02T07:35:16;3.58;;;2.50;;
16393;SDS011;8306;51.128;4.476;2022-09-02T07:37:43;3.20;;;2.30;;
16393;SDS011;8306;51.128;4.476;2022-09-02T07:40:09;3.70;;;2.50;;
16393;SDS011;8306;51.128;4.476;2022-09-02T07:42:36;4.00;;;2.35;;
16393;SDS011;8306;51.128;4.476;2022-09-02T07:45:02;6.28;;;2.70;;
16393;SDS011;8306;51.128;4.476;2022-09-02T07:47:29;4.95;;;2.40;;
16393;SDS011;8306;51.128;4.476;2022-09-02T07:49:55;2.87;;;2.47;;
16393;SDS011;8306;51.128;4.476;2022-09-02T07:52:22;2.75;;;2.50;;
16393;SDS011;8306;51.128;4.476;2022-09-02T07:54:48;3.97;;;2.40;;
16393;SDS011;8306;51.128;4.476;2022-09-02T07:57:15;2.42;;;2.22;;
16393;SDS011;8306;51.128;4.476;2022-09-02T07:59:41;2.60;;;2.25;;
16393;SDS011;8306;51.128;4.476;2022-09-02T08:02:08;5.32;;;2.78;;
16393;SDS011;8306;51.128;4.476;2022-09-02T08:04:34;3.37;;;2.70;;
16393;SDS011;8306;51.128;4.476;2022-09-02T08:07:01;2.80;;;2.40;;
16393;SDS011;8306;51.128;4.476;2022-09-02T08:09:27;2.75;;;2.45;;
16393;SDS011;8306;51.128;4.476;2022-09-02T08:11:54;3.37;;;2.12;;
16393;SDS011;8306;51.128;4.476;2022-09-02T08:14:22;2.20;;;2.00;;
16393;SDS011;8306;51.128;4.476;2022-09-02T08:16:46;2.60;;;2.40;;
16393;SDS011;8306;51.128;4.476;2022-09-02T08:19:13;3.65;;;2.10;;
16393;SDS011;8306;51.128;4.476;2022-09-02T08:21:39;2.87;;;2.20;;
16393;SDS011;8306;51.128;4.476;2022-09-02T08:24:06;3.62;;;2.50;;
16393;SDS011;8306;51.128;4.476;2022-09-02T08:26:32;2.75;;;1.87;;
16393;SDS011;8306;51.128;4.476;2022-09-02T08:29:02;2.55;;;2.22;;
16393;SDS011;8306;51.128;4.476;2022-09-02T08:31:31;3.08;;;2.75;;
16393;SDS011;8306;51.128;4.476;2022-09-02T08:33:58;4.57;;;2.75;;
16393;SDS011;8306;51.128;4.476;2022-09-02T08:36:24;5.85;;;2.10;;
16393;SDS011;8306;51.128;4.476;2022-09-02T08:38:50;2.22;;;2.03;;
16393;SDS011;8306;51.128;4.476;2022-09-02T08:41:29;3.67;;;1.98;;
16393;SDS011;8306;51.128;4.476;2022-09-02T08:43:58;2.33;;;2.12;;
16393;SDS011;8306;51.128;4.476;2022-09-02T08:46:25;2.55;;;2.00;;
16393;SDS011;8306;51.128;4.476;2022-09-02T08:51:20;4.12;;;2.00;;
16393;SDS011;8306;51.128;4.476;2022-09-02T08:53:49;3.33;;;2.20;;
16393;SDS011;8306;51.128;4.476;2022-09-02T08:56:15;2.30;;;2.10;;
16393;SDS011;8306;51.128;4.476;2022-09-02T08:58:43;2.28;;;1.80;;
16393;SDS011;8306;51.128;4.476;2022-09-02T09:06:18;4.85;;;2.40;;
16393;SDS011;8306;51.128;4.476;2022-09-02T09:11:49;2.67;;;2.47;;
16393;SDS011;8306;51.128;4.476;2022-09-02T09:14:10;3.45;;;2.25;;
16393;SDS011;8306;51.128;4.476;2022-09-02T09:16:59;4.35;;;2.35;;
16393;SDS011;8306;51.128;4.476;2022-09-02T09:19:47;2.40;;;2.20;;
16393;SDS011;8306;51.128;4.476;2022-09-02T09:21:54;2.30;;;1.75;;
16393;SDS011;8306;51.128;4.476;2022-09-02T09:24:25;3.87;;;2.58;;
16393;SDS011;8306;51.128;4.476;2022-09-02T09:26:53;2.62;;;2.30;;
16393;SDS011;8306;51.128;4.476;2022-09-02T09:29:22;2.53;;;2.33;;
16393;SDS011;8306;51.128;4.476;2022-09-02T09:31:52;2.17;;;2.00;;
16393;SDS011;8306;51.128;4.476;2022-09-02T09:34:20;2.60;;;2.00;;
16393;SDS011;8306;51.128;4.476;2022-09-02T09:36:48;2.17;;;2.08;;
16393;SDS011;8306;51.128;4.476;2022-09-02T09:41:43;2.42;;;2.10;;
16393;SDS011;8306;51.128;4.476;2022-09-02T09:44:09;5.43;;;2.30;;
16393;SDS011;8306;51.128;4.476;2022-09-02T09:46:36;4.85;;;2.10;;
16393;SDS011;8306;51.128;4.476;2022-09-02T09:49:02;2.50;;;2.30;;
16393;SDS011;8306;51.128;4.476;2022-09-02T09:51:29;3.17;;;2.10;;
16393;SDS011;8306;51.128;4.476;2022-09-02T09:54:14;2.28;;;2.08;;
16393;SDS011;8306;51.128;4.476;2022-09-02T09:56:40;2.20;;;2.00;;
16393;SDS011;8306;51.128;4.476;2022-09-02T09:59:08;2.72;;;;;
16393;SDS011;8306;51.128;4.476;2022-09-02T10:01:33;2.60;;;2.40;;
16393;SDS011;8306;51.128;4.476;2022-09-02T10:04:06;2.45;;;2.15;;
16393;SDS011;8306;51.128;4.476;2022-09-02T10:08:59;2.90;;;2.22;;
16393;SDS011;8306;51.128;4.476;2022-09-02T10:11:32;2.40;;;2.20;;
16393;SDS011;8306;51.128;4.476;2022-09-02T10:13:58;2.50;;;2.30;;
16393;SDS011;8306;51.128;4.476;2022-09-02T10:16:43;2.20;;;2.00;;
16393;SDS011;8306;51.128;4.476;2022-09-02T10:19:21;2.40;;;2.20;;
16393;SDS011;8306;51.128;4.476;2022-09-02T10:25:05;3.17;;;2.00;;
16393;SDS011;8306;51.128;4.476;2022-09-02T10:27:34;2.12;;;1.83;;
16393;SDS011;8306;51.128;4.476;2022-09-02T10:30:07;2.95;;;2.40;;
16393;SDS011;8306;51.128;4.476;2022-09-02T10:40:25;1.80;;;1.70;;
16393;SDS011;8306;51.128;4.476;2022-09-02T10:43:04;3.90;;;2.03;;
16393;SDS011;8306;51.128;4.476;2022-09-02T10:45:38;3.12;;;1.95;;
16393;SDS011;8306;51.128;4.476;2022-09-02T10:48:18;2.33;;;1.90;;
16393;SDS011;8306;51.128;4.476;2022-09-02T10:50:52;1.55;;;1.45;;
16393;SDS011;8306;51.128;4.476;2022-09-02T10:53:22;3.03;;;1.70;;
16393;SDS011;8306;51.128;4.476;2022-09-02T10:58:22;1.73;;;1.62;;
16393;SDS011;8306;51.128;4.476;2022-09-02T11:00:47;1.77;;;1.50;;
16393;SDS011;8306;51.128;4.476;2022-09-02T11:03:29;1.67;;;1.58;;
16393;SDS011;8306;51.128;4.476;2022-09-02T11:06:02;2.35;;;1.95;;
16393;SDS011;8306;51.128;4.476;2022-09-02T11:08:46;1.83;;;1.73;;
16393;SDS011;8306;51.128;4.476;2022-09-02T11:11:18;2.37;;;1.80;;
16393;SDS011;8306;51.128;4.476;2022-09-02T11:16:23;2.62;;;1.80;;
16393;SDS011;8306;51.128;4.476;2022-09-02T11:21:45;1.70;;;1.60;;
16393;SDS011;8306;51.128;4.476;2022-09-02T11:24:32;2.53;;;1.80;;
16393;SDS011;8306;51.128;4.476;2022-09-02T11:27:18;2.62;;;1.60;;
16393;SDS011;8306;51.128;4.476;2022-09-02T11:29:52;3.00;;;1.70;;
16393;SDS011;8306;51.128;4.476;2022-09-02T11:32:33;4.97;;;1.80;;
16393;SDS011;8306;51.128;4.476;2022-09-02T11:34:57;2.97;;;1.70;;
16393;SDS011;8306;51.128;4.476;2022-09-02T11:37:36;2.70;;;1.67;;
16393;SDS011;8306;51.128;4.476;2022-09-02T11:42:58;1.52;;;1.42;;
16393;SDS011;8306;51.128;4.476;2022-09-02T11:45:39;1.20;;;1.10;;
16393;SDS011;8306;51.128;4.476;2022-09-02T11:53:40;1.23;;;1.17;;
16393;SDS011;8306;51.128;4.476;2022-09-02T11:56:24;1.70;;;1.10;;
16393;SDS011;8306;51.128;4.476;2022-09-02T11:58:51;3.33;;;1.48;;
16393;SDS011;8306;51.128;4.476;2022-09-02T12:01:26;1.85;;;1.20;;
16393;SDS011;8306;51.128;4.476;2022-09-02T12:06:36;1.10;;;1.00;;
16393;SDS011;8306;51.128;4.476;2022-09-02T12:09:17;1.10;;;1.10;;
16393;SDS011;8306;51.128;4.476;2022-09-02T12:11:43;1.17;;;1.03;;
16393;SDS011;8306;51.128;4.476;2022-09-02T12:16:42;3.10;;;1.27;;
16393;SDS011;8306;51.128;4.476;2022-09-02T12:22:20;2.43;;;1.27;;
16393;SDS011;8306;51.128;4.476;2022-09-02T12:24:10;1.77;;;1.20;;
16393;SDS011;8306;51.128;4.476;2022-09-02T12:29:29;2.77;;;1.30;;
16393;SDS011;8306;51.128;4.476;2022-09-02T12:31:39;2.10;;;1.13;;
16393;SDS011;8306;51.128;4.476;2022-09-02T12:36:48;2.13;;;1.20;;
16393;SDS011;8306;51.128;4.476;2022-09-02T12:44:43;3.23;;;1.30;;
16393;SDS011;8306;51.128;4.476;2022-09-02T12:50:06;1.33;;;1.17;;
16393;SDS011;8306;51.128;4.476;2022-09-02T12:52:50;1.07;;;1.00;;
16393;SDS011;8306;51.128;4.476;2022-09-02T12:55:21;1.93;;;1.20;;
16393;SDS011;8306;51.128;4.476;2022-09-02T12:58:04;2.05;;;1.00;;
16393;SDS011;8306;51.128;4.476;2022-09-02T13:00:32;1.10;;;1.10;;
16393;SDS011;8306;51.128;4.476;2022-09-02T13:03:24;1.23;;;1.13;;
16393;SDS011;8306;51.128;4.476;2022-09-02T13:08:48;1.20;;;1.20;;
16393;SDS011;8306;51.128;4.476;2022-09-02T13:14:10;1.80;;;1.30;;
16393;SDS011;8306;51.128;4.476;2022-09-02T13:25:23;1.00;;;1.00;;
16393;SDS011;8306;51.128;4.476;2022-09-02T13:33:37;1.30;;;1.20;;
16393;SDS011;8306;51.128;4.476;2022-09-02T13:36:03;1.20;;;1.10;;
16393;SDS011;8306;51.128;4.476;2022-09-02T13:38:30;1.48;;;1.20;;
16393;SDS011;8306;51.128;4.476;2022-09-02T13:40:56;3.23;;;1.13;;
16393;SDS011;8306;51.128;4.476;2022-09-02T13:43:24;1.97;;;1.10;;
16393;SDS011;8306;51.128;4.476;2022-09-02T13:45:50;1.90;;;0.97;;
16393;SDS011;8306;51.128;4.476;2022-09-02T13:48:19;2.20;;;1.10;;
16393;SDS011;8306;51.128;4.476;2022-09-02T13:50:48;1.60;;;1.20;;
16393;SDS011;8306;51.128;4.476;2022-09-02T13:55:52;1.27;;;1.10;;
16393;SDS011;8306;51.128;4.476;2022-09-02T13:58:22;2.07;;;1.20;;
16393;SDS011;8306;51.128;4.476;2022-09-02T14:00:47;1.33;;;1.10;;
16393;SDS011;8306;51.128;4.476;2022-09-02T14:03:16;1.77;;;1.10;;
16393;SDS011;8306;51.128;4.476;2022-09-02T14:05:42;1.20;;;1.07;;
16393;SDS011;8306;51.128;4.476;2022-09-02T14:08:10;2.00;;;1.33;;
16393;SDS011;8306;51.128;4.476;2022-09-02T14:10:33;1.60;;;1.00;;
16393;SDS011;8306;51.128;4.476;2022-09-02T14:13:02;2.20;;;1.20;;
16393;SDS011;8306;51.128;4.476;2022-09-02T14:15:29;1.17;;;1.03;;
16393;SDS011;8306;51.128;4.476;2022-09-02T14:20:34;1.10;;;1.10;;
16393;SDS011;8306;51.128;4.476;2022-09-02T14:23:00;1.00;;;1.00;;
16393;SDS011;8306;51.128;4.476;2022-09-02T14:25:29;2.05;;;1.30;;
16393;SDS011;8306;51.128;4.476;2022-09-02T14:28:07;1.90;;;1.00;;
16393;SDS011;8306;51.128;4.476;2022-09-02T14:33:17;1.03;;;1.03;;
16393;SDS011;8306;51.128;4.476;2022-09-02T14:35:54;1.02;;;1.02;;
16393;SDS011;8306;51.128;4.476;2022-09-02T14:38:23;1.25;;;1.08;;
16393;SDS011;8306;51.128;4.476;2022-09-02T14:40:57;1.77;;;1.17;;
16393;SDS011;8306;51.128;4.476;2022-09-02T14:43:16;2.15;;;1.10;;
16393;SDS011;8306;51.128;4.476;2022-09-02T14:45:44;2.78;;;1.00;;
16393;SDS011;8306;51.128;4.476;2022-09-02T14:48:10;1.15;;;1.05;;
16393;SDS011;8306;51.128;4.476;2022-09-02T14:50:35;1.12;;;1.12;;
16393;SDS011;8306;51.128;4.476;2022-09-02T14:53:05;0.90;;;0.90;;
16393;SDS011;8306;51.128;4.476;2022-09-02T14:55:47;1.10;;;1.00;;
16393;SDS011;8306;51.128;4.476;2022-09-02T14:58:13;2.50;;;1.30;;
16393;SDS011;8306;51.128;4.476;2022-09-02T15:00:39;1.70;;;1.20;;
16393;SDS011;8306;51.128;4.476;2022-09-02T15:03:06;2.67;;;1.17;;
16393;SDS011;8306;51.128;4.476;2022-09-02T15:05:32;2.57;;;1.30;;
16393;SDS011;8306;51.128;4.476;2022-09-02T15:07:59;3.60;;;1.50;;
16393;SDS011;8306;51.128;4.476;2022-09-02T15:10:25;1.47;;;1.37;;
16393;SDS011;8306;51.128;4.476;2022-09-02T15:12:52;1.43;;;1.33;;
16393;SDS011;8306;51.128;4.476;2022-09-02T15:15:18;1.27;;;1.20;;
16393;SDS011;8306;51.128;4.476;2022-09-02T15:17:45;1.23;;;1.17;;
16393;SDS011;8306;51.128;4.476;2022-09-02T15:20:11;1.20;;;1.20;;
16393;SDS011;8306;51.128;4.476;2022-09-02T15:22:37;1.20;;;1.10;;
16393;SDS011;8306;51.128;4.476;2022-09-02T15:25:07;1.27;;;1.17;;
16393;SDS011;8306;51.128;4.476;2022-09-02T15:27:31;2.40;;;1.20;;
16393;SDS011;8306;51.128;4.476;2022-09-02T15:29:57;2.30;;;1.20;;
16393;SDS011;8306;51.128;4.476;2022-09-02T15:32:24;2.23;;;1.30;;
16393;SDS011;8306;51.128;4.476;2022-09-02T15:34:50;4.67;;;1.30;;
16393;SDS011;8306;51.128;4.476;2022-09-02T15:37:17;3.47;;;1.60;;
16393;SDS011;8306;51.128;4.476;2022-09-02T15:39:43;1.73;;;1.40;;
16393;SDS011;8306;51.128;4.476;2022-09-02T15:42:10;1.80;;;1.30;;
16393;SDS011;8306;51.128;4.476;2022-09-02T15:44:36;3.30;;;1.30;;
16393;SDS011;8306;51.128;4.476;2022-09-02T15:47:02;1.50;;;1.30;;
16393;SDS011;8306;51.128;4.476;2022-09-02T15:49:29;2.43;;;1.13;;
16393;SDS011;8306;51.128;4.476;2022-09-02T15:51:55;1.57;;;1.20;;
16393;SDS011;8306;51.128;4.476;2022-09-02T15:54:22;2.63;;;1.40;;
16393;SDS011;8306;51.128;4.476;2022-09-02T15:56:52;4.30;;;1.53;;
16393;SDS011;8306;51.128;4.476;2022-09-02T15:59:16;2.43;;;1.63;;
16393;SDS011;8306;51.128;4.476;2022-09-02T16:01:43;2.03;;;1.40;;
16393;SDS011;8306;51.128;4.476;2022-09-02T16:04:08;4.03;;;1.30;;
16393;SDS011;8306;51.128;4.476;2022-09-02T16:06:35;2.40;;;1.30;;
16393;SDS011;8306;51.128;4.476;2022-09-02T16:09:01;1.40;;;1.30;;
16393;SDS011;8306;51.128;4.476;2022-09-02T16:11:27;1.77;;;1.50;;
16393;SDS011;8306;51.128;4.476;2022-09-02T16:13:54;1.93;;;1.37;;
16393;SDS011;8306;51.128;4.476;2022-09-02T16:16:20;1.93;;;1.30;;
16393;SDS011;8306;51.128;4.476;2022-09-02T16:18:50;1.40;;;1.10;;
16393;SDS011;8306;51.128;4.476;2022-09-02T16:21:16;1.57;;;1.47;;
16393;SDS011;8306;51.128;4.476;2022-09-02T16:23:42;1.67;;;1.20;;
16393;SDS011;8306;51.128;4.476;2022-09-02T16:26:10;3.33;;;1.20;;
16393;SDS011;8306;51.128;4.476;2022-09-02T16:28:51;1.87;;;1.37;;
16393;SDS011;8306;51.128;4.476;2022-09-02T16:31:17;1.37;;;1.20;;
16393;SDS011;8306;51.128;4.476;2022-09-02T16:33:43;1.63;;;1.20;;
16393;SDS011;8306;51.128;4.476;2022-09-02T16:36:10;2.97;;;1.30;;
16393;SDS011;8306;51.128;4.476;2022-09-02T16:38:36;1.00;;;1.00;;